Time;durP1;ratioP1;P1;durP2;ratioP2;P2;SDS_P1;SDS_P2;PMS_P1;PMS_P2;Temp;Humidity;BMP_temperature;BMP_pressure;BME280_temperature;BME280_humidity;BME280_pressure;Samples;Min_cycle;Max_cycle;Signal;HPM_P1;HPM_P2
2021/11/30 00:01:15;;;;;;;12.00;8.30;;;1.80;82.60;;;;;;5038093;28;20256;-79
2021/11/30 00:03:41;;;;;;;10.05;6.97;;;1.80;82.60;;;;;;5038045;28;20357;-79
2021/11/30 00:06:08;;;;;;;11.35;7.68;;;1.80;82.60;;;;;;5037935;28;20105;-79
2021/11/30 00:08:36;;;;;;;13.85;7.82;;;1.80;82.50;;;;;;5038261;28;20468;-79
2021/11/30 00:11:05;;;;;;;10.82;7.95;;;1.80;82.70;;;;;;5038055;28;20025;-79
2021/11/30 00:13:33;;;;;;;13.02;7.78;;;1.80;82.70;;;;;;5038021;28;20029;-79
2021/11/30 00:15:59;;;;;;;11.13;7.05;;;1.80;82.70;;;;;;5036884;28;20036;-79
2021/11/30 00:18:26;;;;;;;11.15;7.65;;;1.80;82.70;;;;;;5037551;28;20029;-79
2021/11/30 00:20:53;;;;;;;11.23;7.22;;;1.80;82.80;;;;;;5037905;28;20053;-79
2021/11/30 00:23:19;;;;;;;14.55;8.43;;;1.80;82.80;;;;;;5037856;28;20476;-79
2021/11/30 00:25:46;;;;;;;13.85;8.15;;;1.80;82.90;;;;;;5037723;28;20033;-78
2021/11/30 00:28:12;;;;;;;18.48;10.30;;;1.80;83.10;;;;;;5036411;28;20484;-78
2021/11/30 00:30:38;;;;;;;18.23;9.38;;;1.90;83.60;;;;;;5038217;28;20032;-78
2021/11/30 00:33:05;;;;;;;20.98;11.02;;;1.90;84.00;;;;;;5037393;28;20027;-78
2021/11/30 00:35:32;;;;;;;23.65;11.90;;;2.10;84.10;;;;;;5037819;28;20033;-78
2021/11/30 00:37:59;;;;;;;19.77;10.80;;;2.20;84.30;;;;;;5037286;28;20042;-78
2021/11/30 00:40:25;;;;;;;21.48;10.98;;;2.20;84.40;;;;;;5037559;28;20052;-78
2021/11/30 00:42:53;;;;;;;17.75;9.80;;;2.30;84.60;;;;;;5037492;28;20014;-78
2021/11/30 00:45:19;;;;;;;14.02;8.27;;;2.40;84.90;;;;;;5034809;28;20078;-78
2021/11/30 00:47:54;;;;;;;12.95;7.88;;;2.50;85.20;;;;;;5036118;28;20041;-78
2021/11/30 00:50:25;;;;;;;10.65;7.00;;;2.60;85.50;;;;;;5036075;28;20090;-78
2021/11/30 00:52:51;;;;;;;8.45;6.10;;;2.70;85.50;;;;;;5037486;28;20100;-78
2021/11/30 00:55:18;;;;;;;9.27;5.20;;;2.80;85.60;;;;;;5037264;28;20029;-78
2021/11/30 00:57:44;;;;;;;9.45;4.88;;;2.90;85.40;;;;;;5037547;28;20539;-78
2021/11/30 01:00:13;;;;;;;7.03;4.38;;;2.90;85.50;;;;;;5037223;28;20037;-79
2021/11/30 01:02:39;;;;;;;6.43;3.50;;;3.00;85.80;;;;;;5037229;28;20436;-78
2021/11/30 01:05:08;;;;;;;8.13;4.07;;;3.10;85.90;;;;;;5037288;28;20029;-78
2021/11/30 01:07:35;;;;;;;7.93;4.35;;;3.20;86.20;;;;;;5037420;28;20018;-78
2021/11/30 01:10:05;;;;;;;6.55;4.20;;;3.30;87.40;;;;;;5037051;28;20568;-78
2021/11/30 01:12:32;;;;;;;6.82;4.07;;;3.30;87.30;;;;;;5037321;28;20033;-78
2021/11/30 01:14:58;;;;;;;7.15;4.30;;;3.40;87.20;;;;;;5037115;28;20427;-78
2021/11/30 01:17:24;;;;;;;8.25;4.10;;;3.50;87.00;;;;;;5036993;28;20022;-78
2021/11/30 01:19:50;;;;;;;8.18;4.53;;;3.50;87.00;;;;;;5040344;28;20040;-78
2021/11/30 01:22:16;;;;;;;7.70;4.75;;;3.60;87.00;;;;;;5041200;28;20045;-78
2021/11/30 01:24:41;;;;;;;7.70;3.95;;;3.60;86.70;;;;;;5041093;28;20060;-78
2021/11/30 01:27:07;;;;;;;6.45;3.83;;;3.70;86.50;;;;;;5039955;28;20021;-78
2021/11/30 01:29:33;;;;;;;8.98;6.18;;;3.70;86.30;;;;;;5041047;28;20396;-78
2021/11/30 01:31:59;;;;;;;11.63;8.68;;;3.70;86.40;;;;;;5039358;28;20034;-78
2021/11/30 01:34:25;;;;;;;12.80;9.13;;;3.80;86.40;;;;;;5041025;28;20030;-78
2021/11/30 01:36:52;;;;;;;11.65;8.68;;;3.80;86.50;;;;;;5039689;28;20156;-78
2021/11/30 01:39:18;;;;;;;10.32;6.75;;;3.80;86.60;;;;;;5040621;28;20026;-78
2021/11/30 01:41:45;;;;;;;7.07;4.60;;;3.80;87.10;;;;;;5041162;28;20477;-78
2021/11/30 01:44:25;;;;;;;5.95;2.88;;;3.80;87.70;;;;;;5038149;28;20044;-78
2021/11/30 01:49:35;;;;;;;5.60;2.10;;;4.00;90.60;;;;;;5041133;28;20036;-79
2021/11/30 01:52:03;;;;;;;4.57;2.30;;;4.10;90.90;;;;;;5040824;28;20022;-79
2021/11/30 01:54:29;;;;;;;4.70;2.10;;;4.20;90.90;;;;;;5040751;28;20499;-78
2021/11/30 01:56:57;;;;;;;4.15;2.00;;;4.20;90.90;;;;;;5040679;28;20017;-78
2021/11/30 01:59:23;;;;;;;6.38;2.47;;;4.40;91.10;;;;;;5040672;28;20492;-78
2021/11/30 02:01:50;;;;;;;4.13;1.95;;;4.40;91.20;;;;;;5040324;28;20496;-78
2021/11/30 02:04:16;;;;;;;4.70;2.10;;;4.50;91.10;;;;;;5040467;28;20028;-78
2021/11/30 02:06:42;;;;;;;4.65;1.70;;;4.60;91.10;;;;;;5040570;28;20022;-78
2021/11/30 02:09:08;;;;;;;3.58;1.77;;;4.70;91.00;;;;;;5040288;28;20037;-78
2021/11/30 02:11:33;;;;;;;4.63;2.15;;;4.80;91.00;;;;;;5040171;28;20040;-78
2021/11/30 02:13:59;;;;;;;3.08;1.95;;;4.90;90.90;;;;;;5039587;28;20033;-78
2021/11/30 02:16:25;;;;;;;5.88;2.03;;;4.90;90.70;;;;;;5039499;28;20503;-78
2021/11/30 02:18:54;;;;;;;4.55;1.92;;;5.00;90.60;;;;;;5039321;28;20033;-78
2021/11/30 02:21:23;;;;;;;5.28;2.00;;;4.90;90.50;;;;;;5039190;28;20063;-78
2021/11/30 02:26:21;;;;;;;5.43;2.15;;;5.00;90.40;;;;;;5039824;28;20025;-78
2021/11/30 02:28:50;;;;;;;3.67;1.90;;;5.00;90.40;;;;;;5039715;28;20033;-78
2021/11/30 02:31:19;;;;;;;5.18;2.55;;;5.10;90.40;;;;;;5039411;28;20029;-78
2021/11/30 02:33:46;;;;;;;4.18;2.55;;;5.10;90.30;;;;;;5039187;28;20069;-78
2021/11/30 02:37:07;;;;;;;3.55;1.98;;;5.20;90.30;;;;;;5039352;28;20041;-79
2021/11/30 02:39:16;;;;;;;4.22;2.30;;;5.30;90.30;;;;;;5024015;28;20042;-78
2021/11/30 02:41:43;;;;;;;4.85;2.30;;;5.30;90.30;;;;;;5038022;28;20017;-78
2021/11/30 02:44:13;;;;;;;3.15;1.80;;;5.40;90.40;;;;;;5039111;28;20039;-78
2021/11/30 02:46:48;;;;;;;3.88;1.83;;;5.50;90.30;;;;;;5039010;28;20044;-78
2021/11/30 02:49:20;;;;;;;5.68;2.47;;;5.50;90.20;;;;;;5037078;28;20638;-78
2021/11/30 02:51:50;;;;;;;5.07;2.30;;;5.60;90.20;;;;;;5039427;28;20076;-78
2021/11/30 02:54:19;;;;;;;3.33;1.70;;;5.60;90.10;;;;;;5039060;28;20033;-78
2021/11/30 02:56:49;;;;;;;3.60;1.73;;;5.60;90.00;;;;;;5038021;28;20076;-78
2021/11/30 02:59:15;;;;;;;4.03;1.77;;;5.70;90.00;;;;;;5039079;28;20026;-78
2021/11/30 03:01:50;;;;;;;3.45;1.70;;;5.80;90.00;;;;;;5038882;28;20033;-78
2021/11/30 03:04:16;;;;;;;3.95;1.85;;;5.70;89.70;;;;;;5038861;28;20018;-78
2021/11/30 03:06:42;;;;;;;4.13;1.70;;;5.80;90.00;;;;;;5039139;28;20085;-78
2021/11/30 03:09:09;;;;;;;3.05;1.50;;;5.80;89.60;;;;;;5039301;28;20116;-78
2021/11/30 03:11:35;;;;;;;4.45;1.75;;;5.80;89.40;;;;;;5037716;28;20108;-78
2021/11/30 03:14:01;;;;;;;5.70;2.58;;;5.90;89.80;;;;;;5038740;28;20112;-78
2021/11/30 03:16:27;;;;;;;5.35;1.80;;;5.90;89.50;;;;;;5038653;28;20029;-78
2021/11/30 03:18:53;;;;;;;3.53;2.03;;;5.90;89.50;;;;;;5039079;28;20061;-78
2021/11/30 03:21:19;;;;;;;4.55;1.90;;;5.90;89.30;;;;;;5038639;28;20017;-78
2021/11/30 03:23:45;;;;;;;4.60;2.33;;;5.90;89.20;;;;;;5037886;28;20032;-78
2021/11/30 03:26:11;;;;;;;6.05;2.65;;;5.90;89.90;;;;;;5038539;28;20527;-78
2021/11/30 03:28:37;;;;;;;5.20;2.28;;;5.90;89.20;;;;;;5037834;28;20104;-78
2021/11/30 03:31:06;;;;;;;5.97;2.55;;;6.00;89.30;;;;;;5037245;28;20014;-78
2021/11/30 03:36:18;;;;;;;5.50;2.33;;;6.00;89.10;;;;;;5032230;28;20519;-78
2021/11/30 03:38:45;;;;;;;4.88;1.92;;;6.00;88.90;;;;;;5037318;28;20120;-78
2021/11/30 03:41:11;;;;;;;4.68;2.10;;;6.00;88.60;;;;;;5038040;28;20021;-78
2021/11/30 03:43:38;;;;;;;4.43;1.90;;;6.00;88.30;;;;;;5034568;28;20030;-78
2021/11/30 03:46:04;;;;;;;4.45;1.92;;;6.00;88.00;;;;;;5036550;28;20025;-78
2021/11/30 03:48:30;;;;;;;6.45;1.85;;;6.00;87.90;;;;;;5038160;28;20060;-78
2021/11/30 03:50:56;;;;;;;3.78;2.00;;;6.00;87.80;;;;;;5038534;28;20021;-78
2021/11/30 03:53:22;;;;;;;5.07;1.90;;;6.00;87.70;;;;;;5037740;28;20036;-78
2021/11/30 03:55:48;;;;;;;3.35;2.13;;;6.00;87.60;;;;;;5036669;28;20464;-78
2021/11/30 03:58:14;;;;;;;3.95;2.08;;;6.00;87.50;;;;;;5037852;28;20034;-78
2021/11/30 04:00:40;;;;;;;7.10;2.33;;;6.00;87.30;;;;;;5037789;28;20022;-78
2021/11/30 04:03:06;;;;;;;4.15;1.90;;;5.90;87.20;;;;;;5036774;28;20024;-78
2021/11/30 04:05:32;;;;;;;4.18;1.98;;;5.90;87.10;;;;;;5037742;28;20102;-78
2021/11/30 04:07:58;;;;;;;3.97;2.50;;;6.00;87.10;;;;;;5036269;28;20017;-78
2021/11/30 04:10:24;;;;;;;3.70;1.80;;;5.90;86.90;;;;;;5038122;28;20029;-78
2021/11/30 04:12:50;;;;;;;4.15;2.03;;;5.90;86.90;;;;;;5037627;28;20427;-78
2021/11/30 04:15:16;;;;;;;3.92;2.13;;;5.90;86.80;;;;;;5037455;28;20029;-78
2021/11/30 04:17:42;;;;;;;4.00;1.83;;;5.90;86.60;;;;;;5037466;28;20037;-78
2021/11/30 04:20:10;;;;;;;3.40;2.00;;;5.90;86.40;;;;;;5038008;28;20036;-78
2021/11/30 04:22:36;;;;;;;4.03;2.45;;;5.80;86.30;;;;;;5037708;28;20503;-78
2021/11/30 04:25:04;;;;;;;5.93;3.05;;;5.80;86.30;;;;;;5036288;28;20086;-78
2021/11/30 04:27:31;;;;;;;4.45;2.55;;;5.70;86.30;;;;;;5037605;28;20035;-78
2021/11/30 04:29:58;;;;;;;5.38;3.53;;;5.70;86.40;;;;;;5037464;28;20029;-78
2021/11/30 04:32:24;;;;;;;6.82;3.40;;;5.70;86.30;;;;;;5037069;28;20112;-78
2021/11/30 04:34:49;;;;;;;6.28;4.05;;;5.70;86.30;;;;;;5037393;28;20068;-78
2021/11/30 04:37:15;;;;;;;6.65;4.38;;;5.70;86.30;;;;;;5037177;28;20042;-78
2021/11/30 04:39:41;;;;;;;9.38;4.57;;;5.70;86.30;;;;;;5037338;28;20041;-78
2021/11/30 04:42:08;;;;;;;9.25;5.15;;;5.70;86.30;;;;;;5036975;28;20018;-78
2021/11/30 04:44:35;;;;;;;7.13;4.22;;;5.70;86.30;;;;;;5034683;28;20025;-78
2021/11/30 04:47:11;;;;;;;6.65;4.07;;;5.80;86.90;;;;;;5035381;28;20033;-78
2021/11/30 04:49:55;;;;;;;7.72;4.35;;;5.70;86.70;;;;;;5036980;28;20412;-78
2021/11/30 04:52:21;;;;;;;7.53;4.25;;;5.80;87.50;;;;;;5037062;28;20104;-78
2021/11/30 04:54:47;;;;;;;6.28;4.15;;;5.80;88.00;;;;;;5036508;28;20033;-78
2021/11/30 04:57:13;;;;;;;4.80;3.83;;;5.80;88.40;;;;;;5037197;28;20030;-78
2021/11/30 04:59:39;;;;;;;7.25;4.13;;;5.80;88.10;;;;;;5037164;28;20497;-78
2021/11/30 05:02:05;;;;;;;8.18;4.30;;;5.80;88.00;;;;;;5036469;28;20058;-78
2021/11/30 05:04:31;;;;;;;6.68;3.85;;;5.90;87.90;;;;;;5037313;28;20392;-78
2021/11/30 05:06:58;;;;;;;6.72;3.80;;;5.90;88.20;;;;;;5037293;28;20021;-78
2021/11/30 05:09:24;;;;;;;6.25;3.83;;;5.90;88.40;;;;;;5036735;28;20469;-78
2021/11/30 05:11:50;;;;;;;6.82;3.60;;;5.90;88.60;;;;;;5035777;28;20144;-78
2021/11/30 05:14:15;;;;;;;5.45;3.70;;;5.90;88.60;;;;;;5036159;28;20025;-78
2021/11/30 05:16:41;;;;;;;5.88;3.88;;;5.90;88.60;;;;;;5036176;28;20550;-78
2021/11/30 05:19:07;;;;;;;6.97;3.40;;;6.00;89.30;;;;;;5035801;28;20061;-78
2021/11/30 05:21:33;;;;;;;6.22;4.20;;;6.00;89.70;;;;;;5036973;28;20022;-78
2021/11/30 05:24:02;;;;;;;8.43;4.10;;;6.00;90.10;;;;;;5036470;28;20045;-78
2021/11/30 05:26:28;;;;;;;6.68;4.30;;;6.00;90.00;;;;;;5035337;28;20400;-78
2021/11/30 05:28:54;;;;;;;7.13;3.90;;;6.10;90.10;;;;;;5036724;28;20025;-78
2021/11/30 05:31:20;;;;;;;6.47;3.67;;;6.10;90.00;;;;;;5036735;28;20026;-78
2021/11/30 05:33:47;;;;;;;5.50;3.58;;;6.10;89.80;;;;;;5035509;28;20408;-78
2021/11/30 05:36:13;;;;;;;6.63;4.18;;;6.10;89.50;;;;;;5036790;28;20033;-78
2021/11/30 05:38:39;;;;;;;6.82;4.43;;;6.10;89.70;;;;;;5036609;28;20057;-78
2021/11/30 05:41:05;;;;;;;6.93;4.07;;;6.10;90.00;;;;;;5036982;28;20466;-78
2021/11/30 05:43:32;;;;;;;8.38;3.85;;;6.10;90.10;;;;;;5036487;28;20017;-78
2021/11/30 05:45:57;;;;;;;6.05;4.10;;;6.10;90.00;;;;;;5036371;28;20049;-78
2021/11/30 05:48:23;;;;;;;7.07;4.00;;;6.10;90.00;;;;;;5036587;28;20020;-78
2021/11/30 05:50:49;;;;;;;7.68;4.32;;;6.20;90.10;;;;;;5036583;28;20029;-78
2021/11/30 05:53:15;;;;;;;8.68;4.50;;;6.20;90.10;;;;;;5036893;28;20152;-78
2021/11/30 05:55:44;;;;;;;6.85;4.78;;;6.20;90.30;;;;;;5036356;28;20049;-78
2021/11/30 05:58:14;;;;;;;7.57;4.78;;;6.20;90.30;;;;;;5036228;28;20079;-79
2021/11/30 06:00:40;;;;;;;6.32;4.63;;;6.30;90.70;;;;;;5036192;28;20134;-79
2021/11/30 06:03:19;;;;;;;8.40;4.65;;;6.30;90.80;;;;;;5036256;28;20053;-75
2021/11/30 06:05:44;;;;;;;7.93;5.72;;;6.30;90.90;;;;;;5039050;28;20556;-72
2021/11/30 06:08:10;;;;;;;11.25;5.25;;;6.30;91.00;;;;;;5039606;28;20115;-72
2021/11/30 06:10:36;;;;;;;7.88;5.05;;;6.30;91.00;;;;;;5040395;28;20064;-72
2021/11/30 06:13:02;;;;;;;10.07;5.13;;;6.30;90.80;;;;;;5040273;28;20026;-72
2021/11/30 06:15:28;;;;;;;10.65;5.03;;;6.30;90.90;;;;;;5039907;28;20068;-72
2021/11/30 06:17:54;;;;;;;9.27;5.57;;;6.40;91.10;;;;;;5039882;28;20029;-72
2021/11/30 06:20:21;;;;;;;7.80;5.32;;;6.40;91.20;;;;;;5039554;28;20502;-72
2021/11/30 06:22:47;;;;;;;8.63;5.47;;;6.40;91.20;;;;;;5039594;28;21001;-72
2021/11/30 06:25:13;;;;;;;7.55;5.22;;;6.50;91.50;;;;;;5039743;28;20477;-72
2021/11/30 06:27:41;;;;;;;7.32;4.85;;;6.50;91.50;;;;;;5039874;28;20048;-72
2021/11/30 06:30:08;;;;;;;6.53;4.53;;;6.40;91.40;;;;;;5039872;28;20033;-75
2021/11/30 06:32:33;;;;;;;8.90;4.95;;;6.40;91.20;;;;;;5039273;28;20091;-73
2021/11/30 06:35:00;;;;;;;7.82;4.68;;;6.40;91.10;;;;;;5039717;28;20029;-71
2021/11/30 06:37:26;;;;;;;7.57;4.57;;;6.40;91.10;;;;;;5038884;28;20117;-70
2021/11/30 06:39:53;;;;;;;8.90;5.75;;;6.50;91.60;;;;;;5039881;28;20037;-72
2021/11/30 06:42:19;;;;;;;8.60;4.65;;;6.50;91.90;;;;;;5039848;28;20480;-72
2021/11/30 06:44:47;;;;;;;6.70;4.75;;;6.50;92.00;;;;;;5038912;28;20500;-71
2021/11/30 06:47:13;;;;;;;7.13;4.95;;;6.60;92.20;;;;;;5037478;28;20021;-73
2021/11/30 06:49:39;;;;;;;9.05;4.82;;;6.60;92.20;;;;;;5039515;28;20136;-73
2021/11/30 06:52:05;;;;;;;8.35;5.28;;;6.60;92.20;;;;;;5038986;28;20092;-76
2021/11/30 06:54:30;;;;;;;7.80;5.13;;;6.60;92.20;;;;;;5038382;28;20563;-75
2021/11/30 06:56:56;;;;;;;7.88;5.35;;;6.60;92.20;;;;;;5043738;28;20056;-75
2021/11/30 06:59:25;;;;;;;6.68;5.00;;;6.60;92.00;;;;;;5040960;28;20064;-75
2021/11/30 07:01:51;;;;;;;8.10;5.80;;;6.60;92.00;;;;;;5039384;28;20033;-75
2021/11/30 07:04:17;;;;;;;7.63;5.75;;;6.60;92.30;;;;;;5038822;28;20382;-75
2021/11/30 07:06:55;;;;;;;8.25;4.95;;;6.60;92.30;;;;;;5038407;28;20018;-75
2021/11/30 07:09:32;;;;;;;14.95;5.43;;;6.70;92.50;;;;;;5038352;28;20029;-76
2021/11/30 07:12:24;;;;;;;8.35;5.43;;;6.70;92.50;;;;;;5038998;28;20060;-75
2021/11/30 07:14:49;;;;;;;7.57;5.20;;;6.60;92.20;;;;;;5037813;28;20053;-77
2021/11/30 07:17:15;;;;;;;9.77;6.65;;;6.60;92.00;;;;;;5036534;28;20075;-75
2021/11/30 07:19:41;;;;;;;23.95;12.93;;;6.60;91.70;;;;;;5036741;28;20029;-76
2021/11/30 07:22:07;;;;;;;21.27;14.18;;;6.60;91.70;;;;;;5037579;28;20140;-76
2021/11/30 07:24:33;;;;;;;15.40;10.35;;;6.60;91.80;;;;;;5038002;28;20017;-76
2021/11/30 07:26:58;;;;;;;12.07;7.38;;;6.60;92.10;;;;;;5037686;28;20018;-76
2021/11/30 07:29:24;;;;;;;9.90;6.07;;;6.60;92.10;;;;;;5039363;28;20088;-76
2021/11/30 07:31:50;;;;;;;8.30;5.63;;;6.70;92.30;;;;;;5038544;28;20025;-76
2021/11/30 07:34:16;;;;;;;8.07;5.55;;;6.70;92.50;;;;;;5038923;28;20502;-76
2021/11/30 07:36:42;;;;;;;12.68;7.55;;;6.80;92.60;;;;;;5038785;28;20044;-75
2021/11/30 07:39:09;;;;;;;9.40;6.53;;;6.70;92.60;;;;;;5037661;28;20476;-76
2021/11/30 07:41:35;;;;;;;9.85;5.95;;;6.70;92.60;;;;;;5038777;28;20458;-75
2021/11/30 07:44:04;;;;;;;9.05;6.20;;;6.80;93.00;;;;;;5035958;28;20069;-76
2021/11/30 07:46:31;;;;;;;11.60;5.72;;;6.80;93.10;;;;;;5038268;28;20025;-76
2021/11/30 07:48:57;;;;;;;7.75;5.03;;;6.80;93.00;;;;;;5038731;28;20116;-76
2021/11/30 07:51:23;;;;;;;9.07;5.05;;;6.80;92.70;;;;;;5038505;28;20026;-77
2021/11/30 07:53:50;;;;;;;7.38;4.43;;;6.80;92.70;;;;;;5038502;28;20511;-77
2021/11/30 07:56:16;;;;;;;6.95;4.35;;;6.90;92.80;;;;;;5038435;28;20018;-76
2021/11/30 07:58:42;;;;;;;7.82;4.05;;;6.90;92.80;;;;;;5038689;28;20477;-76
2021/11/30 08:01:09;;;;;;;5.57;3.50;;;6.90;93.00;;;;;;5038232;28;20812;-77
2021/11/30 08:03:35;;;;;;;6.22;3.92;;;7.00;93.20;;;;;;5038300;28;20049;-76
2021/11/30 08:06:01;;;;;;;6.32;3.95;;;7.00;93.20;;;;;;5038223;28;20017;-77
2021/11/30 08:08:27;;;;;;;6.75;4.30;;;7.10;93.30;;;;;;5038427;28;20029;-76
2021/11/30 08:10:54;;;;;;;8.32;4.65;;;7.20;93.70;;;;;;5038080;28;20025;-77
2021/11/30 08:13:20;;;;;;;7.05;3.63;;;7.30;93.80;;;;;;5038349;28;20120;-76
2021/11/30 08:15:46;;;;;;;8.73;4.30;;;7.30;93.90;;;;;;5037925;28;20056;-77
2021/11/30 08:18:12;;;;;;;6.25;3.72;;;7.30;93.80;;;;;;5037979;28;20029;-76
2021/11/30 08:20:38;;;;;;;6.57;3.88;;;7.30;93.70;;;;;;5037957;28;20040;-76
2021/11/30 08:23:04;;;;;;;7.13;4.22;;;7.40;93.80;;;;;;5038183;28;20081;-75
2021/11/30 08:25:30;;;;;;;7.25;3.85;;;7.50;94.00;;;;;;5037766;28;20044;-76
2021/11/30 08:27:56;;;;;;;11.48;5.32;;;7.50;93.90;;;;;;5038217;28;20087;-76
2021/11/30 08:30:22;;;;;;;10.75;5.40;;;7.50;93.90;;;;;;5036679;28;20056;-76
2021/11/30 08:32:48;;;;;;;9.52;5.78;;;7.60;94.00;;;;;;5036481;28;20116;-76
2021/11/30 08:35:14;;;;;;;11.07;5.85;;;7.70;94.20;;;;;;5037656;28;20052;-76
2021/11/30 08:37:40;;;;;;;8.93;5.35;;;7.70;94.30;;;;;;5037571;28;20096;-76
2021/11/30 08:40:08;;;;;;;8.73;5.50;;;7.70;94.30;;;;;;5037363;28;20030;-76
2021/11/30 08:42:36;;;;;;;9.25;5.80;;;7.80;94.50;;;;;;5037893;28;20075;-76
2021/11/30 08:45:03;;;;;;;9.75;5.68;;;7.90;94.50;;;;;;5026158;28;20033;-77
2021/11/30 08:47:28;;;;;;;11.38;6.30;;;7.90;94.60;;;;;;5037361;28;20495;-76
2021/11/30 08:49:55;;;;;;;9.23;5.72;;;8.00;94.70;;;;;;5037454;28;20021;-77
2021/11/30 08:52:25;;;;;;;11.27;5.20;;;8.00;94.80;;;;;;5037623;28;20030;-76
2021/11/30 08:54:52;;;;;;;11.20;6.20;;;8.00;94.70;;;;;;5037342;28;20100;-76
2021/11/30 08:57:19;;;;;;;13.23;6.68;;;8.00;94.70;;;;;;5036182;28;20487;-76
2021/11/30 08:59:45;;;;;;;9.20;6.05;;;8.00;94.70;;;;;;5037207;28;20028;-76
2021/11/30 09:02:11;;;;;;;8.32;5.35;;;8.00;94.80;;;;;;5037083;28;20825;-76
2021/11/30 09:04:37;;;;;;;12.02;7.25;;;8.10;94.80;;;;;;5037269;28;20024;-76
2021/11/30 09:07:04;;;;;;;9.20;5.95;;;8.20;94.90;;;;;;5036343;28;20072;-76
2021/11/30 09:09:30;;;;;;;8.77;5.72;;;8.20;94.90;;;;;;5037097;28;20156;-76
2021/11/30 09:11:56;;;;;;;8.63;5.15;;;8.30;95.00;;;;;;5035972;28;20025;-76
2021/11/30 09:14:22;;;;;;;9.13;5.63;;;8.30;94.90;;;;;;5037321;28;20030;-76
2021/11/30 09:16:52;;;;;;;8.88;5.88;;;8.40;95.10;;;;;;5036906;28;20068;-76
2021/11/30 09:19:19;;;;;;;8.80;5.40;;;8.40;95.10;;;;;;5037268;28;20021;-76
2021/11/30 09:21:45;;;;;;;8.80;5.68;;;8.50;95.10;;;;;;5037218;28;20049;-75
2021/11/30 09:24:11;;;;;;;8.88;4.90;;;8.60;95.40;;;;;;5037143;28;20030;-75
2021/11/30 09:26:37;;;;;;;8.93;5.43;;;8.70;95.30;;;;;;5037050;28;20025;-76
2021/11/30 09:29:04;;;;;;;9.85;5.22;;;8.80;95.10;;;;;;5037176;28;20125;-76
2021/11/30 09:31:30;;;;;;;7.90;4.97;;;8.80;95.00;;;;;;5036796;28;20389;-76
2021/11/30 09:33:58;;;;;;;9.77;5.90;;;8.80;94.80;;;;;;5037204;28;20033;-76
2021/11/30 09:36:24;;;;;;;8.27;5.28;;;8.90;94.80;;;;;;5035540;28;20049;-76
2021/11/30 09:38:50;;;;;;;8.68;5.50;;;8.90;94.80;;;;;;5035821;28;20026;-76
2021/11/30 09:41:16;;;;;;;11.98;5.57;;;9.00;94.80;;;;;;5039711;28;20067;-76
2021/11/30 09:43:42;;;;;;;9.77;5.70;;;9.10;94.80;;;;;;5036520;28;20018;-76
2021/11/30 09:46:08;;;;;;;7.55;5.50;;;9.10;94.70;;;;;;5034674;28;20029;-76
2021/11/30 09:48:35;;;;;;;9.77;5.20;;;9.20;94.70;;;;;;5039506;28;20029;-76
2021/11/30 09:51:02;;;;;;;8.73;5.18;;;9.20;94.50;;;;;;5039868;28;20087;-76
2021/11/30 09:53:29;;;;;;;8.50;5.38;;;9.20;94.40;;;;;;5039795;28;20025;-76
2021/11/30 09:55:55;;;;;;;8.65;5.22;;;9.30;94.40;;;;;;5039532;28;20030;-76
2021/11/30 09:58:23;;;;;;;9.52;5.75;;;9.30;94.30;;;;;;5039448;28;20388;-75
2021/11/30 10:00:51;;;;;;;9.65;5.60;;;9.40;94.40;;;;;;5039458;28;20399;-76
2021/11/30 10:03:19;;;;;;;8.27;5.20;;;9.40;94.20;;;;;;5039033;28;20160;-77
2021/11/30 10:05:45;;;;;;;8.27;4.85;;;9.50;94.10;;;;;;5040429;28;20168;-76
2021/11/30 10:08:30;;;;;;;10.02;5.65;;;9.50;93.90;;;;;;5040898;28;20480;-76
2021/11/30 10:10:56;;;;;;;9.52;6.05;;;9.50;93.90;;;;;;5040309;28;20033;-76
2021/11/30 10:13:22;;;;;;;7.50;4.82;;;9.60;93.90;;;;;;5039440;28;20030;-76
2021/11/30 10:15:51;;;;;;;9.30;5.10;;;9.70;93.80;;;;;;5040259;28;20030;-76
2021/11/30 10:18:26;;;;;;;8.38;4.95;;;9.70;93.70;;;;;;5040238;28;20423;-75
2021/11/30 10:20:58;;;;;;;7.50;5.10;;;9.80;93.50;;;;;;5040380;28;20029;-76
2021/11/30 10:23:25;;;;;;;9.55;4.97;;;9.80;93.70;;;;;;5038862;28;20081;-76
2021/11/30 10:25:52;;;;;;;10.68;5.88;;;9.80;93.50;;;;;;5040192;28;20029;-76
2021/11/30 10:28:21;;;;;;;10.63;7.57;;;9.80;93.30;;;;;;5040252;28;20358;-75
2021/11/30 10:30:50;;;;;;;10.45;6.32;;;9.80;93.30;;;;;;5039643;28;20490;-75
2021/11/30 10:33:25;;;;;;;28.30;14.85;;;9.80;93.30;;;;;;5039674;28;20385;-76
2021/11/30 10:35:55;;;;;;;15.30;9.35;;;9.90;93.20;;;;;;5038720;28;20034;-76
2021/11/30 10:38:31;;;;;;;15.63;8.57;;;9.90;93.20;;;;;;5039867;28;20107;-76
2021/11/30 10:41:27;;;;;;;10.18;6.60;;;9.90;93.20;;;;;;5038525;28;20033;-76
2021/11/30 10:44:06;;;;;;;11.00;5.95;;;10.00;93.20;;;;;;5033876;28;20018;-76
2021/11/30 10:46:34;;;;;;;12.30;5.90;;;10.10;93.20;;;;;;5037094;28;20017;-76
2021/11/30 10:49:01;;;;;;;11.68;7.80;;;10.30;93.20;;;;;;5038981;28;20025;-76
2021/11/30 10:51:30;;;;;;;12.25;6.63;;;10.50;93.20;;;;;;5038315;28;20021;-76
2021/11/30 10:53:59;;;;;;;11.00;6.90;;;10.60;92.90;;;;;;5039828;28;20021;-76
2021/11/30 10:56:26;;;;;;;10.50;7.47;;;10.70;92.60;;;;;;5038407;28;20038;-76
2021/11/30 10:58:55;;;;;;;10.63;7.30;;;10.90;92.40;;;;;;5039917;28;20468;-76
2021/11/30 11:01:24;;;;;;;11.30;6.05;;;10.90;92.20;;;;;;5039264;28;20067;-76
2021/11/30 11:04:04;;;;;;;8.40;4.50;;;11.10;91.90;;;;;;5039683;28;20468;-77
2021/11/30 11:06:31;;;;;;;12.45;5.57;;;11.00;91.80;;;;;;5039497;28;20531;-77
2021/11/30 11:09:11;;;;;;;11.05;5.97;;;11.10;91.70;;;;;;5039342;28;20404;-77
2021/11/30 11:11:41;;;;;;;13.32;7.82;;;11.20;91.70;;;;;;5039403;28;20040;-77
2021/11/30 11:14:43;;;;;;;12.93;7.03;;;11.40;91.50;;;;;;5039298;28;20396;-77
2021/11/30 11:17:10;;;;;;;8.50;5.43;;;11.50;91.30;;;;;;5034547;28;20087;-76
2021/11/30 11:19:45;;;;;;;9.88;5.10;;;11.70;91.00;;;;;;5039190;28;20021;-77
2021/11/30 11:22:25;;;;;;;10.15;4.72;;;11.90;90.50;;;;;;5039012;28;20503;-77
2021/11/30 11:24:55;;;;;;;8.25;3.88;;;12.10;90.00;;;;;;5039010;28;20472;-77
2021/11/30 11:27:34;;;;;;;10.07;4.57;;;12.20;89.80;;;;;;5039168;28;20026;-76
2021/11/30 11:30:01;;;;;;;10.27;4.15;;;12.30;89.00;;;;;;5038891;28;20041;-76
2021/11/30 11:32:27;;;;;;;9.32;3.78;;;12.40;88.80;;;;;;5037351;28;20482;-77
2021/11/30 11:34:53;;;;;;;17.33;9.63;;;12.60;87.30;;;;;;5039170;28;20056;-77
2021/11/30 11:37:19;;;;;;;15.38;8.07;;;12.70;85.50;;;;;;5038758;28;20045;-76
2021/11/30 11:39:45;;;;;;;9.98;4.78;;;12.60;85.90;;;;;;5038591;28;20033;-76
2021/11/30 11:42:13;;;;;;;9.48;4.53;;;12.70;85.50;;;;;;5038877;28;20028;-76
2021/11/30 11:44:40;;;;;;;7.05;3.88;;;12.70;84.30;;;;;;5028537;28;20018;-76
2021/11/30 11:47:13;;;;;;;7.70;3.25;;;12.80;84.00;;;;;;5038554;28;20021;-76
2021/11/30 11:49:42;;;;;;;7.20;2.92;;;12.80;83.90;;;;;;5038431;28;20034;-76
2021/11/30 11:52:29;;;;;;;8.80;3.08;;;12.90;82.40;;;;;;5038814;28;20083;-76
2021/11/30 11:55:27;;;;;;;10.32;5.38;;;13.00;82.40;;;;;;5038258;28;20491;-76
2021/11/30 11:58:03;;;;;;;7.25;3.97;;;13.10;82.60;;;;;;5036141;28;20053;-76
2021/11/30 12:00:33;;;;;;;10.85;4.80;;;13.10;82.20;;;;;;5037341;28;20112;-76
2021/11/30 12:03:03;;;;;;;6.38;3.13;;;13.10;82.00;;;;;;5036495;28;20028;-76
2021/11/30 12:05:51;;;;;;;9.00;3.28;;;13.10;80.60;;;;;;5037010;28;20099;-76
2021/11/30 12:08:37;;;;;;;6.15;2.55;;;13.10;80.60;;;;;;5038647;28;20030;-76
2021/11/30 12:11:05;;;;;;;7.57;3.10;;;13.00;79.50;;;;;;5037997;28;20057;-76
2021/11/30 12:13:31;;;;;;;6.97;3.47;;;13.00;79.60;;;;;;5038119;28;20484;-76
2021/11/30 12:16:09;;;;;;;6.68;3.00;;;12.90;79.90;;;;;;5037808;28;20096;-76
2021/11/30 12:18:43;;;;;;;5.60;2.17;;;12.90;80.40;;;;;;5037967;28;20028;-76
2021/11/30 12:21:25;;;;;;;5.72;2.08;;;13.00;79.60;;;;;;5037431;28;20087;-76
2021/11/30 12:23:53;;;;;;;7.85;2.20;;;13.00;79.90;;;;;;5036898;28;20017;-76
2021/11/30 12:26:38;;;;;;;6.47;2.25;;;13.20;79.10;;;;;;5038016;28;20044;-76
2021/11/30 12:29:17;;;;;;;7.18;4.97;;;13.20;79.20;;;;;;5038293;28;20029;-76
2021/11/30 12:31:43;;;;;;;5.72;2.63;;;13.30;78.00;;;;;;5037663;28;20029;-76
2021/11/30 12:34:09;;;;;;;5.57;2.30;;;13.30;78.70;;;;;;5038232;28;20030;-76
2021/11/30 12:36:42;;;;;;;7.78;4.15;;;13.20;77.10;;;;;;5036414;28;20099;-77
2021/11/30 12:39:12;;;;;;;7.15;2.00;;;13.20;77.40;;;;;;5037607;28;20033;-77
2021/11/30 12:41:41;;;;;;;4.53;1.88;;;13.20;77.30;;;;;;5036528;28;20072;-76
2021/11/30 12:44:10;;;;;;;5.10;1.80;;;13.10;76.20;;;;;;5029537;28;20393;-76
2021/11/30 12:46:39;;;;;;;5.90;1.70;;;13.10;77.00;;;;;;5035030;28;20021;-76
2021/11/30 12:49:23;;;;;;;7.80;2.25;;;13.10;77.40;;;;;;5036583;28;20025;-76
2021/11/30 12:52:15;;;;;;;3.95;1.40;;;13.20;77.10;;;;;;5037625;28;20052;-76
2021/11/30 12:54:46;;;;;;;4.00;1.55;;;13.30;75.30;;;;;;5037301;28;20060;-77
2021/11/30 12:57:20;;;;;;;4.38;2.00;;;13.40;75.50;;;;;;5036434;28;20432;-76
2021/11/30 12:59:51;;;;;;;4.15;1.85;;;13.40;75.20;;;;;;5037574;28;20040;-76
2021/11/30 13:02:30;;;;;;;7.50;2.40;;;13.40;75.60;;;;;;5037107;28;20029;-76
2021/11/30 13:05:21;;;;;;;5.25;1.77;;;13.40;75.70;;;;;;5037771;28;20025;-76
2021/11/30 13:07:49;;;;;;;4.32;1.90;;;13.40;76.40;;;;;;5037253;28;20362;-76